Aktualne dane pomiarowe

Uwaga, wersja testowa! Automatyczne pobieranie danych za pomocą narzędzi lub skryptów to umożliwiających jest zabronione.

Dane meteo z obszaru Polski uzyskane na podstawie depesz SYNOP pobieranych co godzinę z NWS. Najedź myszką na symbol przedstawiony w tabeli, aby uzyskać informacje co do jego znaczenia. Prosimy pamiętać, że to testowa wersja strony, która jeszcze nie jest ukończona. Stworzono również jest krótki FAQ dotyczący korzystania z tej podstrony Anomalie temperatury w chwili obecnej odniesione są do okresu referencyjnego 1951-2016. Okres ten będzie później zmieniony na 1981-2010. Kliknij ikonę aby pobrać plik CSV. Kliknij ikonę aby wygenerować mapę synoptyczną dla danego terminu.

Wybierz Datę:    

        

Opole (12530)

Dane terminowe dla wybranej stacji. Kliknij datę, aby otrzymać dane z tego terminu dla wszystkich stacji.

TemperaturaZachmurzenieWiatrCiśnienieOpadyPogoda
 Data t td wb tx tn tg rh  Nt Nl Cl Cm Ch ws wd g1 g2 wx mslp ppp ch 24h 12h t ww ww w1 w2  
2019-10-03 23:00:00 8.2 6.8 7.2--- 9120.0wxwxwx1wx--11014.9 994.9 -0.2---------
2019-10-03 22:00:00 8.3 7.2 7.5--- 9320.0wxwxwx2wx--21015.0 995.0 0.3---------
2019-10-03 21:00:00 8.3 7.2 7.5--- 9315.0wxwxwx2wx---1015.3 995.3 0.8---wx---
2019-10-03 20:00:00 8.6 7.4 7.8--- 9215.0wxwxwx3wx--31015.1 995.1 0.8---------
2019-10-03 19:00:00 8.3 7.2 7.5--- 9315.0wxwxwx2wx--21014.7 994.7 0.7---------
2019-10-03 18:00:00 8.4 7.2 7.6 12.0 4.9- 9210.0wxwxwx2wx--21014.5 994.5 0.9- 2.012wx-w1--
2019-10-03 17:00:00 8.8 7.6 8.0--- 9210.0wxwxwxwx1wx---1014.2 994.3 1.2---wx-w1--
2019-10-03 16:00:00 8.8 7.4 7.8--- 9110.0wxwxwxwx2wx---1013.9 994.0 0.5---wx---
2019-10-03 15:00:00 9.2 7.5 8.0--- 8915.0wxwxwx3wx--31013.5 993.6 0.4---wx-w1--
2019-10-03 14:00:00 10.4 6.7 8.1--- 7820.0wxwxwxwx2wx--21012.9 993.1 0.0---wx---
2019-10-03 13:00:00 9.7 6.6 7.7--- 8110.0wxwxwx5wx--51013.4 993.5 0.2---wx---
2019-10-03 12:00:00 10.9 5.4 7.7--- 6920.0wxwxwxwx4wx-841013.0 993.2 0.0--6wx-w1--
2019-10-03 11:00:00 10.3 5.3 7.4--- 7120.0wxwxwx3wx-831012.9 993.1 0.2---------
2019-10-03 10:00:00 9.9 4.9 7.0--- 7120.0wxwxwx4wx--41013.1 993.3 0.5---wx---
2019-10-03 09:00:00 9.6 4.8 6.8--- 7220.0wxwxwxwx5wx--51013.1 993.2 0.5---wx---
2019-10-03 08:00:00 9.6 5.0 6.9--- 7320.0wx-wxwx4wx--41012.8 992.9 0.3---------
2019-10-03 07:00:00 7.9 5.5 6.4--- 8520.0wx-wxwx1wx--11012.8 992.8 0.2---------
2019-10-03 06:00:00 4.9 4.0 4.2 9.5 4.7 3 9415.0wx-wx1wx--11012.9 992.7 0.4 3.9 0.512------
2019-10-03 05:00:00 4.9 4.2 4.4--- 9510.0wx-wx1wx--11012.8 992.6 0.4---------
2019-10-03 04:00:00 5.7 4.7 5.0--- 9315.0wx-wx1wx--11012.7 992.6 0.7---------
2019-10-03 03:00:00 6.0 5.0 5.3--- 9310.0wx-wx1wx--11012.4 992.3 0.7---------
2019-10-03 02:00:00 6.5 5.6 5.8--- 9410.0wx-wx2wx--21012.3 992.2 0.7---------
2019-10-03 01:00:00 7.0 6.1 6.3--- 9410.0wx-wx3wx---1011.9 991.9 1.0---------
2019-10-03 00:00:00 7.6 6.8 7.0--- 9515.0wx-wx3wx--31011.6 991.6 1.2- 0.56wx-w1--
2019-10-02 23:00:00 8.3 7.2 7.5--- 9315.0wxwxwxwx3wx--31011.4 991.5 1.8---------
2019-10-02 22:00:00 8.6 7.7 7.9--- 9415.0wxwxwx2wx--21010.8 990.9 1.9---------
2019-10-02 21:00:00 8.7 7.8 8.0--- 9415.0wxwxwx3wx--31010.3 990.4 2.0---wx-w1--
2019-10-02 20:00:00 8.9 8.0 8.2--- 9415.0wxwxwx2wx--21009.5 989.7 2.0---------
2019-10-02 19:00:00 9.0 8.1 8.3--- 9410.0wxwxwx3wx---1008.8 989.0 2.3---wx---
2019-10-02 18:00:00 9.5 8.7 8.9 17.7 9.5- 9510.0wxwxwx3wx-1231008.2 988.4 2.8- 3.012wx-w1--
2019-10-02 17:00:00 9.7 8.6 8.9--- 9310.0wxwxwx2wx---1007.4 987.7 3.5---wx-w1w2--
2019-10-02 16:00:00 10.2 8.7 9.2--- 9015.0wxwxwx3wx---1006.4 986.7 3.6---wx---
2019-10-02 15:00:00 11.3 9.8 10.3--- 9020.0wxwxwx4wx9--1005.2 985.6 2.7---wx-w1--
2019-10-02 14:00:00 13.4 12.2 12.5--- 9210.0wxwxwx5wx-1251003.6 984.2 1.2---wx---
2019-10-02 13:00:00 16.9 14.1 15.0--- 8420.0wxwxwxwx2wx--21002.3 983.1 -0.1---wx---
2019-10-02 12:00:00 16.1 14.0 14.6--- 8715.0wxwxwx2wx--21002.1 982.9 -0.2- 0.96wx-w1--
2019-10-02 11:00:00 16.0 13.9 14.5--- 8720.0wxwxwxwx2wx--21002.2 983.0 0.2---------
2019-10-02 10:00:00 15.5 14.0 14.4--- 9120.0wxwxwxwx2wx--21002.5 983.2 0.7---wx---
2019-10-02 09:00:00 15.4 13.9 14.3--- 9115.0wxwxwx1wx--11002.4 983.1 0.9---wx-w1--
2019-10-02 08:00:00 15.8 13.4 14.1--- 8615.0wxwxwx2wx--21002.0 982.8 0.8---wx---
2019-10-02 07:00:00 17.6 12.4 14.2--- 7220.0wxwxwxwx2wx--21001.6 982.5 0.1---------
2019-10-02 06:00:00 16.8 11.8 13.6 17.5 14.9 12 7220.0wx-wx2wx--21001.3 982.2 -0.7 0.3 0.012----- 5.5
2019-10-02 05:00:00 16.0 11.9 13.3--- 7720.0wx-wx2wx--21001.2 982.0 -1.2---------
2019-10-02 04:00:00 15.9 12.2 13.4--- 7920.0wx-wx3wx--31001.6 982.4 -1.0---------
2019-10-02 03:00:00 15.8 12.1 13.3--- 7920.0wx-wx3wx---1002.1 982.9 -0.9---------
2019-10-02 02:00:00 15.1 11.6 12.8--- 8020.0wx-wx1wx--11002.5 983.2 -0.4---------
2019-10-02 01:00:00 15.6 11.1 12.7--- 7520.0wx-wx2wx--21002.7 983.4 -0.4---------
2019-10-02 00:00:00 15.5 10.6 12.4--- 7320.0wx-wx2wx--21003.1 983.8 -0.2- 0.06------
26.4 ms

 

Print Friendly, PDF & Email